YMV weather

Mary River Aerodrome
Nunavut, Canada

Public forecast

Using degrees Celsius for public forecast. Weather courtesy of forecast.io.

METAR (pilot weather report)

Closest report is Pond Inlet Airport, 85.6 nm (158.5 km) NNE. Retrieved 2019/04/26 03:38 UTC (5 minutes ago):

CYIO 260338Z AUTO 17004KT 9SM -SN OVC050 M23/M26 A2976 RMK SLP090

TAF (pilot weather forecast)

Closest forecast is Pond Inlet Airport, 85.6 nm (158.5 km) NNE. Retrieved 2019/04/26 01:39 UTC (2 hours ago):

TAF CYIO 260038Z 2601/2613 VRB03KT P6SM FEW250 BECMG 2601/2603 07010KT FM260300 07010KT P6SM SCT060 TEMPO 2603/2613 5SM -SN BKN060 BECMG 2606/2608 07015KT RMK FCST BASED ON AUTO OBS. NXT FCST BY 260700Z